Carmel by the Sea, California
Current Conditions -  °F | °C
As of 8:31 AM on Sunday 21 Dec 2014 (Local Time) from KMRY Reporting Station
Scattered Clouds Scattered Clouds  
Wind Chill: 57°   Ceiling: Unl
Heat Index: 57°   Visibility: 10mi
Dew Point: 54°   Wind: 0mph
Humidity: 88%   Direction: NA
Pressure: 30.3"   Gusts: NA
Location:  36.5547°N, 121.916°W
Report Text: KMRY 211631Z 00000KT 10SM SCT017 14/12 A3030 RMK AO2
Loading
Personal Weather Stations






























Interactive Weather Map New forecast layout! Learn more

10-Day Weather Forecast

Advertisements
Track Severe Weather on mobile